sensor_id;sensor_type;location;lat;lon;timestamp;pressure;altitude;pressure_sealevel;temperature;humidity
60417;BME280;46263;44.726;10.396;2023-03-20T00:01:37;100827.28;;;14.77;72.32
60417;BME280;46263;44.726;10.396;2023-03-20T00:04:03;100806.59;;;14.74;72.82
60417;BME280;46263;44.726;10.396;2023-03-20T00:06:28;100813.63;;;14.81;72.13
60417;BME280;46263;44.726;10.396;2023-03-20T00:08:54;100809.53;;;14.82;72.42
60417;BME280;46263;44.726;10.396;2023-03-20T00:11:34;100809.63;;;14.76;72.03
60417;BME280;46263;44.726;10.396;2023-03-20T00:14:04;100810.72;;;14.73;72.07
60417;BME280;46263;44.726;10.396;2023-03-20T00:16:33;100802.69;;;14.77;72.11
60417;BME280;46263;44.726;10.396;2023-03-20T00:18:59;100820.25;;;14.70;72.02
60417;BME280;46263;44.726;10.396;2023-03-20T00:21:24;100815.03;;;14.61;72.45
60417;BME280;46263;44.726;10.396;2023-03-20T00:23:50;100813.63;;;14.55;73.28
60417;BME280;46263;44.726;10.396;2023-03-20T00:26:17;100818.91;;;14.45;73.02
60417;BME280;46263;44.726;10.396;2023-03-20T00:28:47;100809.41;;;14.48;73.09
60417;BME280;46263;44.726;10.396;2023-03-20T00:31:26;100809.72;;;14.58;73.14
60417;BME280;46263;44.726;10.396;2023-03-20T00:33:54;100812.78;;;14.60;72.60
60417;BME280;46263;44.726;10.396;2023-03-20T00:36:20;100811.25;;;14.59;72.80
60417;BME280;46263;44.726;10.396;2023-03-20T00:38:46;100812.31;;;14.56;72.92
60417;BME280;46263;44.726;10.396;2023-03-20T00:43:47;100805.63;;;14.59;73.61
60417;BME280;46263;44.726;10.396;2023-03-20T00:46:13;100804.53;;;14.62;74.02
60417;BME280;46263;44.726;10.396;2023-03-20T00:48:40;100803.03;;;14.61;74.14
60417;BME280;46263;44.726;10.396;2023-03-20T00:51:06;100809.09;;;14.65;73.42
60417;BME280;46263;44.726;10.396;2023-03-20T00:53:32;100797.59;;;14.63;74.18
60417;BME280;46263;44.726;10.396;2023-03-20T00:55:58;100795.56;;;14.63;73.51
60417;BME280;46263;44.726;10.396;2023-03-20T01:02:05;100789.50;;;14.72;72.82
60417;BME280;46263;44.726;10.396;2023-03-20T01:04:36;100783.88;;;14.72;72.86
60417;BME280;46263;44.726;10.396;2023-03-20T01:07:03;100786.25;;;14.68;73.40
60417;BME280;46263;44.726;10.396;2023-03-20T01:09:28;100788.75;;;14.59;73.90
60417;BME280;46263;44.726;10.396;2023-03-20T01:11:54;100775.88;;;14.63;73.37
60417;BME280;46263;44.726;10.396;2023-03-20T01:14:19;100774.47;;;14.70;73.61
60417;BME280;46263;44.726;10.396;2023-03-20T01:16:45;100776.09;;;14.65;73.72
60417;BME280;46263;44.726;10.396;2023-03-20T01:19:12;100773.81;;;14.64;73.86
60417;BME280;46263;44.726;10.396;2023-03-20T01:21:38;100770.78;;;14.62;73.68
60417;BME280;46263;44.726;10.396;2023-03-20T01:24:04;100771.53;;;14.62;73.37
60417;BME280;46263;44.726;10.396;2023-03-20T01:26:38;100766.56;;;14.68;73.13
60417;BME280;46263;44.726;10.396;2023-03-20T01:29:23;100767.75;;;14.60;73.63
60417;BME280;46263;44.726;10.396;2023-03-20T01:31:50;100765.06;;;14.54;73.58
60417;BME280;46263;44.726;10.396;2023-03-20T01:34:16;100766.91;;;14.52;73.36
60417;BME280;46263;44.726;10.396;2023-03-20T01:36:49;100769.91;;;14.54;73.24
60417;BME280;46263;44.726;10.396;2023-03-20T01:39:16;100764.41;;;14.48;73.64
60417;BME280;46263;44.726;10.396;2023-03-20T01:41:43;100770.78;;;14.49;73.78
60417;BME280;46263;44.726;10.396;2023-03-20T01:44:19;100763.41;;;14.46;73.38
60417;BME280;46263;44.726;10.396;2023-03-20T01:46:46;100756.50;;;14.47;73.69
60417;BME280;46263;44.726;10.396;2023-03-20T01:51:45;100764.09;;;14.52;73.34
60417;BME280;46263;44.726;10.396;2023-03-20T01:54:22;100763.31;;;14.51;73.00
60417;BME280;46263;44.726;10.396;2023-03-20T01:59:32;100763.53;;;14.53;73.82
60417;BME280;46263;44.726;10.396;2023-03-20T02:02:00;100764.59;;;14.50;74.08
60417;BME280;46263;44.726;10.396;2023-03-20T02:04:33;100771.00;;;14.51;74.12
60417;BME280;46263;44.726;10.396;2023-03-20T02:07:02;100765.16;;;14.49;74.18
60417;BME280;46263;44.726;10.396;2023-03-20T02:09:27;100760.41;;;14.44;74.62
60417;BME280;46263;44.726;10.396;2023-03-20T02:11:53;100757.13;;;14.40;74.49
60417;BME280;46263;44.726;10.396;2023-03-20T02:14:21;100758.66;;;14.41;74.45
60417;BME280;46263;44.726;10.396;2023-03-20T02:16:48;100755.19;;;14.35;73.91
60417;BME280;46263;44.726;10.396;2023-03-20T02:19:28;100750.00;;;14.39;74.23
60417;BME280;46263;44.726;10.396;2023-03-20T02:22:23;100747.63;;;14.43;74.06
60417;BME280;46263;44.726;10.396;2023-03-20T02:28:19;100747.72;;;14.37;74.27
60417;BME280;46263;44.726;10.396;2023-03-20T02:42:17;100748.94;;;14.29;74.87
60417;BME280;46263;44.726;10.396;2023-03-20T02:48:07;100752.34;;;14.22;75.11
60417;BME280;46263;44.726;10.396;2023-03-20T02:50:47;100744.78;;;14.30;74.88
60417;BME280;46263;44.726;10.396;2023-03-20T02:58:41;100743.09;;;14.27;74.95
60417;BME280;46263;44.726;10.396;2023-03-20T03:01:13;100737.97;;;14.26;75.37
60417;BME280;46263;44.726;10.396;2023-03-20T03:03:46;100737.97;;;14.26;74.90
60417;BME280;46263;44.726;10.396;2023-03-20T03:06:22;100734.09;;;14.29;75.12
60417;BME280;46263;44.726;10.396;2023-03-20T03:08:55;100743.09;;;14.27;75.59
60417;BME280;46263;44.726;10.396;2023-03-20T03:11:22;100735.63;;;14.30;74.70
60417;BME280;46263;44.726;10.396;2023-03-20T03:13:51;100732.91;;;14.24;75.37
60417;BME280;46263;44.726;10.396;2023-03-20T03:16:25;100738.44;;;14.30;74.88
60417;BME280;46263;44.726;10.396;2023-03-20T03:18:58;100733.88;;;14.27;74.97
60417;BME280;46263;44.726;10.396;2023-03-20T03:21:27;100745.03;;;14.19;75.31
60417;BME280;46263;44.726;10.396;2023-03-20T03:23:54;100739.94;;;14.31;75.68
60417;BME280;46263;44.726;10.396;2023-03-20T03:26:32;100733.78;;;14.32;74.80
60417;BME280;46263;44.726;10.396;2023-03-20T03:29:01;100732.06;;;14.29;74.81
60417;BME280;46263;44.726;10.396;2023-03-20T03:31:30;100738.09;;;14.33;75.22
60417;BME280;46263;44.726;10.396;2023-03-20T03:33:58;100738.56;;;14.37;74.57
60417;BME280;46263;44.726;10.396;2023-03-20T03:36:47;100739.63;;;14.34;74.59
60417;BME280;46263;44.726;10.396;2023-03-20T03:42:11;100739.19;;;14.30;75.16
60417;BME280;46263;44.726;10.396;2023-03-20T03:45:11;100733.03;;;14.32;75.40
60417;BME280;46263;44.726;10.396;2023-03-20T03:47:44;100727.63;;;14.34;75.09
60417;BME280;46263;44.726;10.396;2023-03-20T03:50:19;100730.88;;;14.37;74.77
60417;BME280;46263;44.726;10.396;2023-03-20T03:52:48;100721.22;;;14.33;75.47
60417;BME280;46263;44.726;10.396;2023-03-20T03:55:20;100725.34;;;14.32;74.62
60417;BME280;46263;44.726;10.396;2023-03-20T03:57:52;100722.09;;;14.28;74.72
60417;BME280;46263;44.726;10.396;2023-03-20T04:00:22;100729.34;;;14.24;75.73
60417;BME280;46263;44.726;10.396;2023-03-20T04:02:53;100728.81;;;14.25;75.56
60417;BME280;46263;44.726;10.396;2023-03-20T04:05:19;100733.56;;;14.30;75.61
60417;BME280;46263;44.726;10.396;2023-03-20T04:07:46;100734.97;;;14.24;75.73
60417;BME280;46263;44.726;10.396;2023-03-20T04:10:12;100729.25;;;14.29;74.99
60417;BME280;46263;44.726;10.396;2023-03-20T04:12:42;100732.81;;;14.30;75.02
60417;BME280;46263;44.726;10.396;2023-03-20T04:15:09;100727.72;;;14.28;75.18
60417;BME280;46263;44.726;10.396;2023-03-20T04:17:35;100734.88;;;14.29;75.58
60417;BME280;46263;44.726;10.396;2023-03-20T04:20:01;100729.44;;;14.31;74.77
60417;BME280;46263;44.726;10.396;2023-03-20T04:22:27;100740.03;;;14.38;74.83
60417;BME280;46263;44.726;10.396;2023-03-20T04:24:53;100740.03;;;14.38;74.90
60417;BME280;46263;44.726;10.396;2023-03-20T04:27:19;100738.22;;;14.40;74.61
60417;BME280;46263;44.726;10.396;2023-03-20T04:29:45;100736.38;;;14.43;74.73
60417;BME280;46263;44.726;10.396;2023-03-20T04:32:10;100740.81;;;14.38;74.65
60417;BME280;46263;44.726;10.396;2023-03-20T04:34:36;100734.88;;;14.29;75.28
60417;BME280;46263;44.726;10.396;2023-03-20T04:37:01;100747.72;;;14.37;74.62
60417;BME280;46263;44.726;10.396;2023-03-20T04:39:27;100742.31;;;14.27;75.32
60417;BME280;46263;44.726;10.396;2023-03-20T04:41:53;100751.41;;;14.33;75.47
60417;BME280;46263;44.726;10.396;2023-03-20T04:44:19;100747.00;;;14.37;75.29
60417;BME280;46263;44.726;10.396;2023-03-20T04:46:44;100747.84;;;14.32;74.90
60417;BME280;46263;44.726;10.396;2023-03-20T04:49:10;100753.13;;;14.35;75.30
60417;BME280;46263;44.726;10.396;2023-03-20T04:51:35;100744.19;;;14.37;74.82
60417;BME280;46263;44.726;10.396;2023-03-20T04:54:00;100740.91;;;14.33;74.59
60417;BME280;46263;44.726;10.396;2023-03-20T04:56:26;100746.31;;;14.31;74.84
60417;BME280;46263;44.726;10.396;2023-03-20T04:58:51;100742.22;;;14.32;75.46
60417;BME280;46263;44.726;10.396;2023-03-20T05:01:17;100742.66;;;14.36;75.37
60417;BME280;46263;44.726;10.396;2023-03-20T05:03:42;100744.50;;;14.34;75.67
60417;BME280;46263;44.726;10.396;2023-03-20T05:06:08;100750.75;;;14.27;75.75
60417;BME280;46263;44.726;10.396;2023-03-20T05:08:34;100740.19;;;14.33;75.34
60417;BME280;46263;44.726;10.396;2023-03-20T05:10:59;100742.97;;;14.33;75.75
60417;BME280;46263;44.726;10.396;2023-03-20T05:13:24;100746.75;;;14.35;75.34
60417;BME280;46263;44.726;10.396;2023-03-20T05:15:50;100749.25;;;14.38;75.27
60417;BME280;46263;44.726;10.396;2023-03-20T05:18:16;100751.63;;;14.34;75.46
60417;BME280;46263;44.726;10.396;2023-03-20T05:20:41;100751.28;;;14.38;75.98
60417;BME280;46263;44.726;10.396;2023-03-20T05:23:07;100755.19;;;14.35;75.89
60417;BME280;46263;44.726;10.396;2023-03-20T05:25:32;100754.09;;;14.38;76.39
60417;BME280;46263;44.726;10.396;2023-03-20T05:27:58;100761.88;;;14.32;76.10
60417;BME280;46263;44.726;10.396;2023-03-20T05:30:23;100759.09;;;14.32;76.06
60417;BME280;46263;44.726;10.396;2023-03-20T05:32:49;100763.84;;;14.24;76.54
60417;BME280;46263;44.726;10.396;2023-03-20T05:35:16;100761.78;;;14.25;76.19
60417;BME280;46263;44.726;10.396;2023-03-20T05:37:42;100762.13;;;14.21;76.55
60417;BME280;46263;44.726;10.396;2023-03-20T05:40:11;100776.91;;;14.22;76.82
60417;BME280;46263;44.726;10.396;2023-03-20T05:42:37;100774.25;;;14.29;76.81
60417;BME280;46263;44.726;10.396;2023-03-20T05:45:03;100772.25;;;14.24;76.98
60417;BME280;46263;44.726;10.396;2023-03-20T05:47:29;100779.94;;;14.24;76.97
60417;BME280;46263;44.726;10.396;2023-03-20T05:49:54;100772.59;;;14.21;76.66
60417;BME280;46263;44.726;10.396;2023-03-20T05:52:20;100777.56;;;14.28;76.48
60417;BME280;46263;44.726;10.396;2023-03-20T05:54:45;100779.41;;;14.25;76.97
60417;BME280;46263;44.726;10.396;2023-03-20T05:57:11;100781.25;;;14.23;76.74
60417;BME280;46263;44.726;10.396;2023-03-20T05:59:37;100781.78;;;14.21;77.01
60417;BME280;46263;44.726;10.396;2023-03-20T06:02:02;100790.09;;;14.27;77.08
60417;BME280;46263;44.726;10.396;2023-03-20T06:04:27;100787.53;;;14.29;76.32
60417;BME280;46263;44.726;10.396;2023-03-20T06:06:53;100794.97;;;14.26;76.91
60417;BME280;46263;44.726;10.396;2023-03-20T06:09:18;100793.78;;;14.22;76.48
60417;BME280;46263;44.726;10.396;2023-03-20T06:11:44;100788.59;;;14.26;76.52
60417;BME280;46263;44.726;10.396;2023-03-20T06:14:10;100803.66;;;14.28;76.88
60417;BME280;46263;44.726;10.396;2023-03-20T06:16:36;100803.00;;;14.35;75.94
60417;BME280;46263;44.726;10.396;2023-03-20T06:19:01;100801.25;;;14.32;76.44
60417;BME280;46263;44.726;10.396;2023-03-20T06:21:27;100799.09;;;14.25;76.48
60417;BME280;46263;44.726;10.396;2023-03-20T06:23:52;100804.28;;;14.34;76.38
60417;BME280;46263;44.726;10.396;2023-03-20T06:26:19;100797.03;;;14.26;76.57
60417;BME280;46263;44.726;10.396;2023-03-20T06:28:45;100801.47;;;14.34;76.06
60417;BME280;46263;44.726;10.396;2023-03-20T06:31:10;100805.81;;;14.35;75.79
60417;BME280;46263;44.726;10.396;2023-03-20T06:33:36;100807.53;;;14.38;75.90
60417;BME280;46263;44.726;10.396;2023-03-20T06:36:02;100813.94;;;14.38;75.91
60417;BME280;46263;44.726;10.396;2023-03-20T06:38:28;100807.53;;;14.38;75.54
60417;BME280;46263;44.726;10.396;2023-03-20T06:40:54;100816.97;;;14.40;74.96
60417;BME280;46263;44.726;10.396;2023-03-20T06:43:19;100817.06;;;14.35;75.29
60417;BME280;46263;44.726;10.396;2023-03-20T06:45:45;100821.81;;;14.40;75.71
60417;BME280;46263;44.726;10.396;2023-03-20T06:48:11;100823.44;;;14.35;75.70
60417;BME280;46263;44.726;10.396;2023-03-20T06:50:36;100822.91;;;14.37;75.23
60417;BME280;46263;44.726;10.396;2023-03-20T06:53:02;100823.34;;;14.41;75.76
60417;BME280;46263;44.726;10.396;2023-03-20T06:55:28;100825.19;;;14.51;74.74
60417;BME280;46263;44.726;10.396;2023-03-20T06:57:53;100829.75;;;14.54;74.83
60417;BME280;46263;44.726;10.396;2023-03-20T07:00:19;100838.19;;;14.54;74.88
60417;BME280;46263;44.726;10.396;2023-03-20T07:02:46;100832.88;;;14.51;74.82
60417;BME280;46263;44.726;10.396;2023-03-20T07:05:11;100837.13;;;14.57;74.68
60417;BME280;46263;44.726;10.396;2023-03-20T07:07:37;100836.13;;;14.55;74.46
60417;BME280;46263;44.726;10.396;2023-03-20T07:10:03;100830.28;;;14.53;74.66
60417;BME280;46263;44.726;10.396;2023-03-20T07:12:29;100849.22;;;14.52;74.90
60417;BME280;46263;44.726;10.396;2023-03-20T07:14:54;100846.31;;;14.58;74.84
60417;BME280;46263;44.726;10.396;2023-03-20T07:17:20;100841.97;;;14.57;74.62
60417;BME280;46263;44.726;10.396;2023-03-20T07:19:46;100845.44;;;14.63;75.08
60417;BME280;46263;44.726;10.396;2023-03-20T07:22:26;100849.75;;;14.64;74.59
60417;BME280;46263;44.726;10.396;2023-03-20T07:24:52;100854.56;;;14.69;74.55
60417;BME280;46263;44.726;10.396;2023-03-20T07:27:17;100848.06;;;14.74;75.26
60417;BME280;46263;44.726;10.396;2023-03-20T07:29:43;100855.63;;;14.79;74.21
60417;BME280;46263;44.726;10.396;2023-03-20T07:32:09;100851.63;;;14.87;75.00
60417;BME280;46263;44.726;10.396;2023-03-20T07:34:34;100853.69;;;14.87;73.71
60417;BME280;46263;44.726;10.396;2023-03-20T07:37:00;100862.56;;;14.78;74.26
60417;BME280;46263;44.726;10.396;2023-03-20T07:39:25;100867.19;;;14.75;74.56
60417;BME280;46263;44.726;10.396;2023-03-20T07:41:51;100859.75;;;14.78;73.95
60417;BME280;46263;44.726;10.396;2023-03-20T07:44:17;100868.19;;;14.78;73.70
60417;BME280;46263;44.726;10.396;2023-03-20T07:46:44;100863.19;;;14.71;73.64
60417;BME280;46263;44.726;10.396;2023-03-20T07:49:12;100861.38;;;14.73;73.88
60417;BME280;46263;44.726;10.396;2023-03-20T07:51:38;100870.00;;;14.75;74.23
60417;BME280;46263;44.726;10.396;2023-03-20T07:54:03;100870.00;;;14.75;73.93
60417;BME280;46263;44.726;10.396;2023-03-20T07:56:29;100870.34;;;14.72;74.70
60417;BME280;46263;44.726;10.396;2023-03-20T07:58:55;100872.19;;;14.82;74.03
60417;BME280;46263;44.726;10.396;2023-03-20T08:01:20;100880.09;;;14.84;74.09
60417;BME280;46263;44.726;10.396;2023-03-20T08:03:46;100880.09;;;14.84;74.04
60417;BME280;46263;44.726;10.396;2023-03-20T08:06:11;100888.53;;;14.84;73.96
60417;BME280;46263;44.726;10.396;2023-03-20T08:08:37;100884.00;;;14.81;74.51
60417;BME280;46263;44.726;10.396;2023-03-20T08:11:02;100878.34;;;14.81;73.95
60417;BME280;46263;44.726;10.396;2023-03-20T08:13:28;100880.44;;;14.80;73.69
60417;BME280;46263;44.726;10.396;2023-03-20T08:15:53;100882.47;;;14.80;73.74
60417;BME280;46263;44.726;10.396;2023-03-20T08:18:19;100883.75;;;14.79;73.79
60417;BME280;46263;44.726;10.396;2023-03-20T08:20:46;100888.88;;;14.80;74.14
60417;BME280;46263;44.726;10.396;2023-03-20T08:23:15;100894.19;;;14.84;74.17
60417;BME280;46263;44.726;10.396;2023-03-20T08:25:40;100888.78;;;14.86;73.52
60417;BME280;46263;44.726;10.396;2023-03-20T08:28:06;100888.78;;;14.86;74.04
60417;BME280;46263;44.726;10.396;2023-03-20T08:30:32;100892.88;;;14.85;73.89
60417;BME280;46263;44.726;10.396;2023-03-20T08:32:57;100895.16;;;14.86;73.85
60417;BME280;46263;44.726;10.396;2023-03-20T08:35:23;100887.44;;;14.87;73.82
60417;BME280;46263;44.726;10.396;2023-03-20T08:37:49;100897.09;;;14.91;73.83
60417;BME280;46263;44.726;10.396;2023-03-20T08:40:15;100899.16;;;14.91;73.47
60417;BME280;46263;44.726;10.396;2023-03-20T08:42:41;100899.72;;;14.89;72.63
60417;BME280;46263;44.726;10.396;2023-03-20T08:45:07;100901.00;;;14.88;72.16
60417;BME280;46263;44.726;10.396;2023-03-20T08:47:33;100899.06;;;14.96;72.32
60417;BME280;46263;44.726;10.396;2023-03-20T08:49:58;100898.28;;;14.96;72.88
60417;BME280;46263;44.726;10.396;2023-03-20T08:52:23;100893.22;;;14.94;72.61
60417;BME280;46263;44.726;10.396;2023-03-20T08:54:49;100895.47;;;14.96;72.73
60417;BME280;46263;44.726;10.396;2023-03-20T08:57:15;100899.59;;;15.08;72.39
60417;BME280;46263;44.726;10.396;2023-03-20T08:59:40;100907.41;;;15.14;72.31
60417;BME280;46263;44.726;10.396;2023-03-20T09:02:06;100902.97;;;15.19;71.55
60417;BME280;46263;44.726;10.396;2023-03-20T09:04:31;100905.69;;;15.24;71.69
60417;BME280;46263;44.726;10.396;2023-03-20T09:06:57;100899.41;;;15.31;71.47
60417;BME280;46263;44.726;10.396;2023-03-20T09:09:22;100904.06;;;15.29;71.84
60417;BME280;46263;44.726;10.396;2023-03-20T09:11:56;100910.03;;;15.38;71.08
60417;BME280;46263;44.726;10.396;2023-03-20T09:14:23;100908.50;;;15.37;70.91
60417;BME280;46263;44.726;10.396;2023-03-20T09:16:50;100904.81;;;15.42;69.69
60417;BME280;46263;44.726;10.396;2023-03-20T09:19:16;100919.44;;;15.41;69.78
60417;BME280;46263;44.726;10.396;2023-03-20T09:21:41;100909.81;;;15.49;69.34
60417;BME280;46263;44.726;10.396;2023-03-20T09:24:07;100914.56;;;15.54;69.67
60417;BME280;46263;44.726;10.396;2023-03-20T09:26:32;100912.19;;;15.58;69.39
60417;BME280;46263;44.726;10.396;2023-03-20T09:28:58;100917.13;;;15.65;67.90
60417;BME280;46263;44.726;10.396;2023-03-20T09:31:24;100921.16;;;15.70;67.36
60417;BME280;46263;44.726;10.396;2023-03-20T09:33:49;100924.16;;;15.72;67.00
60417;BME280;46263;44.726;10.396;2023-03-20T09:36:15;100923.50;;;15.79;66.70
60417;BME280;46263;44.726;10.396;2023-03-20T09:38:41;100918.41;;;15.77;66.82
60417;BME280;46263;44.726;10.396;2023-03-20T09:41:16;100928.03;;;15.82;67.53
60417;BME280;46263;44.726;10.396;2023-03-20T09:44:11;100915.81;;;15.79;66.86
60417;BME280;46263;44.726;10.396;2023-03-20T09:49:51;100926.63;;;15.88;66.80
60417;BME280;46263;44.726;10.396;2023-03-20T09:52:36;100919.00;;;15.96;66.41
60417;BME280;46263;44.726;10.396;2023-03-20T09:55:17;100925.09;;;15.87;65.77
60417;BME280;46263;44.726;10.396;2023-03-20T09:57:49;100920.03;;;15.86;65.50
60417;BME280;46263;44.726;10.396;2023-03-20T10:00:18;100922.50;;;15.89;66.33
60417;BME280;46263;44.726;10.396;2023-03-20T10:05:29;100928.47;;;15.86;66.67
60417;BME280;46263;44.726;10.396;2023-03-20T10:07:58;100932.72;;;15.79;67.24
60417;BME280;46263;44.726;10.396;2023-03-20T10:16:16;100928.25;;;15.84;66.62
60417;BME280;46263;44.726;10.396;2023-03-20T10:19:19;100928.03;;;15.82;66.79
60417;BME280;46263;44.726;10.396;2023-03-20T10:21:44;100930.13;;;15.81;66.67
60417;BME280;46263;44.726;10.396;2023-03-20T10:29:58;100913.44;;;16.03;67.01
60417;BME280;46263;44.726;10.396;2023-03-20T10:32:37;100913.63;;;16.18;66.90
60417;BME280;46263;44.726;10.396;2023-03-20T10:37:38;100906.53;;;16.25;65.74
60417;BME280;46263;44.726;10.396;2023-03-20T10:40:22;100908.69;;;16.32;65.72
60417;BME280;46263;44.726;10.396;2023-03-20T10:42:51;100903.38;;;16.28;62.96
60417;BME280;46263;44.726;10.396;2023-03-20T10:45:32;100906.31;;;16.36;62.00
60417;BME280;46263;44.726;10.396;2023-03-20T10:47:59;100899.22;;;16.42;63.97
60417;BME280;46263;44.726;10.396;2023-03-20T10:50:38;100892.75;;;16.55;62.69
60417;BME280;46263;44.726;10.396;2023-03-20T10:53:06;100888.53;;;16.69;62.88
60417;BME280;46263;44.726;10.396;2023-03-20T10:55:41;100886.97;;;16.88;61.08
60417;BME280;46263;44.726;10.396;2023-03-20T10:58:22;100880.88;;;17.04;63.03
60417;BME280;46263;44.726;10.396;2023-03-20T11:00:49;100882.81;;;17.17;62.19
60417;BME280;46263;44.726;10.396;2023-03-20T11:03:24;100870.28;;;17.25;62.59
60417;BME280;46263;44.726;10.396;2023-03-20T11:06:02;100871.59;;;17.24;61.20
60417;BME280;46263;44.726;10.396;2023-03-20T11:08:33;100873.31;;;17.27;60.60
60417;BME280;46263;44.726;10.396;2023-03-20T11:11:02;100866.13;;;17.26;64.21
60417;BME280;46263;44.726;10.396;2023-03-20T11:13:35;100869.78;;;17.34;61.39
60417;BME280;46263;44.726;10.396;2023-03-20T11:18:47;100878.81;;;17.33;60.27
60417;BME280;46263;44.726;10.396;2023-03-20T11:21:26;100872.16;;;17.23;59.36
60417;BME280;46263;44.726;10.396;2023-03-20T11:23:53;100867.53;;;17.12;59.41
60417;BME280;46263;44.726;10.396;2023-03-20T11:26:40;100868.88;;;17.11;60.37
60417;BME280;46263;44.726;10.396;2023-03-20T11:29:09;100861.31;;;17.06;59.96
60417;BME280;46263;44.726;10.396;2023-03-20T11:31:40;100864.91;;;17.07;59.50
60417;BME280;46263;44.726;10.396;2023-03-20T11:36:32;100854.19;;;17.13;61.53
60417;BME280;46263;44.726;10.396;2023-03-20T11:39:31;100853.84;;;17.16;60.37
60417;BME280;46263;44.726;10.396;2023-03-20T11:42:00;100857.59;;;17.19;60.41
60417;BME280;46263;44.726;10.396;2023-03-20T11:44:28;100853.09;;;17.16;60.88
60417;BME280;46263;44.726;10.396;2023-03-20T11:47:06;100855.34;;;17.17;60.44
60417;BME280;46263;44.726;10.396;2023-03-20T11:49:53;100850.09;;;17.21;61.23
60417;BME280;46263;44.726;10.396;2023-03-20T11:52:22;100847.81;;;17.20;61.23
60417;BME280;46263;44.726;10.396;2023-03-20T11:54:51;100845.16;;;17.14;60.49
60417;BME280;46263;44.726;10.396;2023-03-20T11:57:39;100839.13;;;17.10;60.97
60417;BME280;46263;44.726;10.396;2023-03-20T12:00:23;100838.56;;;17.12;61.91
60417;BME280;46263;44.726;10.396;2023-03-20T12:02:50;100838.13;;;17.00;60.91
60417;BME280;46263;44.726;10.396;2023-03-20T12:07:45;100825.91;;;17.05;61.35
60417;BME280;46263;44.726;10.396;2023-03-20T12:10:13;100826.41;;;16.96;62.16
60417;BME280;46263;44.726;10.396;2023-03-20T12:12:53;100825.31;;;16.99;62.14
60417;BME280;46263;44.726;10.396;2023-03-20T12:15:25;100817.19;;;16.96;61.76
60417;BME280;46263;44.726;10.396;2023-03-20T12:18:51;100819.44;;;16.97;62.62
60417;BME280;46263;44.726;10.396;2023-03-20T12:21:27;100817.69;;;17.22;61.34
60417;BME280;46263;44.726;10.396;2023-03-20T12:24:06;100815.56;;;17.51;60.81
60417;BME280;46263;44.726;10.396;2023-03-20T12:26:44;100807.72;;;17.64;60.54
60417;BME280;46263;44.726;10.396;2023-03-20T12:29:31;100804.34;;;17.73;60.47
60417;BME280;46263;44.726;10.396;2023-03-20T12:34:32;100806.78;;;17.69;59.67
60417;BME280;46263;44.726;10.396;2023-03-20T12:36:59;100800.56;;;17.78;59.41
60417;BME280;46263;44.726;10.396;2023-03-20T12:39:41;100793.06;;;17.80;59.60
60417;BME280;46263;44.726;10.396;2023-03-20T12:42:28;100799.47;;;17.81;59.21
60417;BME280;46263;44.726;10.396;2023-03-20T12:45:18;100798.31;;;17.76;57.17
60417;BME280;46263;44.726;10.396;2023-03-20T12:47:56;100791.81;;;17.46;54.70
60417;BME280;46263;44.726;10.396;2023-03-20T12:50:38;100796.03;;;17.67;56.04
60417;BME280;46263;44.726;10.396;2023-03-20T12:55:48;100786.84;;;17.82;57.78
60417;BME280;46263;44.726;10.396;2023-03-20T12:58:34;100783.44;;;17.76;55.84
60417;BME280;46263;44.726;10.396;2023-03-20T13:11:19;100789.91;;;18.43;53.61
60417;BME280;46263;44.726;10.396;2023-03-20T13:13:56;100780.84;;;18.52;52.68
60417;BME280;46263;44.726;10.396;2023-03-20T13:17:00;100784.03;;;18.41;52.40
60417;BME280;46263;44.726;10.396;2023-03-20T13:19:36;100767.84;;;18.42;53.33
60417;BME280;46263;44.726;10.396;2023-03-20T13:22:12;100778.00;;;18.60;53.54
60417;BME280;46263;44.726;10.396;2023-03-20T13:24:40;100770.66;;;18.42;51.40
60417;BME280;46263;44.726;10.396;2023-03-20T13:33:05;100763.66;;;18.58;51.55
60417;BME280;46263;44.726;10.396;2023-03-20T13:35:42;100756.47;;;18.57;52.01
60417;BME280;46263;44.726;10.396;2023-03-20T13:38:18;100754.19;;;18.78;53.07
60417;BME280;46263;44.726;10.396;2023-03-20T13:40:46;100761.13;;;18.92;52.26
60417;BME280;46263;44.726;10.396;2023-03-20T13:43:26;100758.81;;;19.05;51.78
60417;BME280;46263;44.726;10.396;2023-03-20T13:48:40;100755.22;;;19.12;52.61
60417;BME280;46263;44.726;10.396;2023-03-20T13:56:58;100766.63;;;18.75;54.25
60417;BME280;46263;44.726;10.396;2023-03-20T13:59:36;100753.06;;;18.66;53.12
60417;BME280;46263;44.726;10.396;2023-03-20T14:04:33;100758.47;;;18.94;51.74
60417;BME280;46263;44.726;10.396;2023-03-20T14:06:59;100756.72;;;19.13;52.85
60417;BME280;46263;44.726;10.396;2023-03-20T14:09:33;100744.94;;;19.24;53.04
60417;BME280;46263;44.726;10.396;2023-03-20T14:12:10;100748.34;;;19.30;52.10
60417;BME280;46263;44.726;10.396;2023-03-20T14:14:49;100749.59;;;19.44;52.19
60417;BME280;46263;44.726;10.396;2023-03-20T14:17:20;100752.50;;;19.61;51.36
60417;BME280;46263;44.726;10.396;2023-03-20T14:19:47;100749.31;;;19.57;49.82
60417;BME280;46263;44.726;10.396;2023-03-20T14:22:25;100749.31;;;19.57;50.07
60417;BME280;46263;44.726;10.396;2023-03-20T14:24:58;100753.47;;;19.56;52.51
60417;BME280;46263;44.726;10.396;2023-03-20T14:27:29;100750.00;;;19.65;52.27
60417;BME280;46263;44.726;10.396;2023-03-20T14:48:54;100749.19;;;19.01;54.50
60417;BME280;46263;44.726;10.396;2023-03-20T14:53:56;100743.81;;;19.27;53.28